sensor_id;sensor_type;location;lat;lon;timestamp;pressure;altitude;pressure_sealevel;temperature;humidity
83308;BME280;73223;48.584;13.460;2024-02-21T00:01:02;97775.13;;;6.35;100.00
83308;BME280;73223;48.584;13.460;2024-02-21T00:03:27;97781.09;;;6.29;100.00
83308;BME280;73223;48.584;13.460;2024-02-21T00:05:53;97787.06;;;5.93;100.00
83308;BME280;73223;48.584;13.460;2024-02-21T00:08:18;97785.38;;;6.12;100.00
83308;BME280;73223;48.584;13.460;2024-02-21T00:10:43;97775.09;;;6.32;100.00
83308;BME280;73223;48.584;13.460;2024-02-21T00:13:08;97786.16;;;5.80;100.00
83308;BME280;73223;48.584;13.460;2024-02-21T00:15:34;97786.13;;;5.74;100.00
83308;BME280;73223;48.584;13.460;2024-02-21T00:17:59;97781.97;;;6.23;100.00
83308;BME280;73223;48.584;13.460;2024-02-21T00:20:24;97782.00;;;6.43;100.00
83308;BME280;73223;48.584;13.460;2024-02-21T00:22:51;97772.53;;;6.38;100.00
83308;BME280;73223;48.584;13.460;2024-02-21T00:25:16;97771.69;;;6.48;100.00
83308;BME280;73223;48.584;13.460;2024-02-21T00:27:41;97776.72;;;5.82;100.00
83308;BME280;73223;48.584;13.460;2024-02-21T00:30:07;97772.53;;;6.36;100.00
83308;BME280;73223;48.584;13.460;2024-02-21T00:32:32;97778.53;;;6.03;100.00
83308;BME280;73223;48.584;13.460;2024-02-21T00:34:59;97757.06;;;6.13;100.00
83308;BME280;73223;48.584;13.460;2024-02-21T00:37:25;97766.53;;;6.51;100.00
83308;BME280;73223;48.584;13.460;2024-02-21T00:39:50;97762.22;;;6.50;100.00
83308;BME280;73223;48.584;13.460;2024-02-21T00:42:15;97763.94;;;6.31;100.00
83308;BME280;73223;48.584;13.460;2024-02-21T00:44:40;97757.06;;;6.65;100.00
83308;BME280;73223;48.584;13.460;2024-02-21T00:47:06;97764.81;;;6.07;100.00
83308;BME280;73223;48.584;13.460;2024-02-21T00:49:31;97760.50;;;6.47;100.00
83308;BME280;73223;48.584;13.460;2024-02-21T00:51:56;97761.38;;;6.37;100.00
83308;BME280;73223;48.584;13.460;2024-02-21T00:54:22;97764.81;;;6.47;100.00
83308;BME280;73223;48.584;13.460;2024-02-21T00:56:47;97761.38;;;6.36;100.00
83308;BME280;73223;48.584;13.460;2024-02-21T00:59:13;97762.25;;;6.24;100.00
83308;BME280;73223;48.584;13.460;2024-02-21T01:01:39;97763.94;;;6.66;100.00
83308;BME280;73223;48.584;13.460;2024-02-21T01:04:06;97755.38;;;6.55;100.00
83308;BME280;73223;48.584;13.460;2024-02-21T01:06:32;97752.78;;;6.50;100.00
83308;BME280;73223;48.584;13.460;2024-02-21T01:08:57;97747.66;;;6.06;100.00
83308;BME280;73223;48.584;13.460;2024-02-21T01:11:22;97750.22;;;6.38;100.00
83308;BME280;73223;48.584;13.460;2024-02-21T01:13:47;97749.34;;;6.50;100.00
83308;BME280;73223;48.584;13.460;2024-02-21T01:16:13;97743.34;;;6.33;100.00
83308;BME280;73223;48.584;13.460;2024-02-21T01:18:38;97739.91;;;5.99;100.00
83308;BME280;73223;48.584;13.460;2024-02-21T01:21:07;97739.06;;;6.19;100.00
83308;BME280;73223;48.584;13.460;2024-02-21T01:23:34;97739.06;;;6.07;100.00
83308;BME280;73223;48.584;13.460;2024-02-21T01:25:59;97737.34;;;6.35;100.00
83308;BME280;73223;48.584;13.460;2024-02-21T01:28:25;97732.97;;;5.67;100.00
83308;BME280;73223;48.584;13.460;2024-02-21T01:30:50;97727.06;;;6.35;100.00
83308;BME280;73223;48.584;13.460;2024-02-21T01:33:16;97721.91;;;6.15;100.00
83308;BME280;73223;48.584;13.460;2024-02-21T01:35:41;97721.03;;;6.27;100.00
83308;BME280;73223;48.584;13.460;2024-02-21T01:38:07;97717.53;;;5.70;100.00
83308;BME280;73223;48.584;13.460;2024-02-21T01:40:32;97711.59;;;6.00;100.00
83308;BME280;73223;48.584;13.460;2024-02-21T01:42:57;97715.81;;;5.69;100.00
83308;BME280;73223;48.584;13.460;2024-02-21T01:45:23;97716.66;;;5.74;100.00
83308;BME280;73223;48.584;13.460;2024-02-21T01:47:49;97711.63;;;6.18;100.00
83308;BME280;73223;48.584;13.460;2024-02-21T01:50:15;97707.25;;;5.76;100.00
83308;BME280;73223;48.584;13.460;2024-02-21T01:52:41;97694.47;;;6.05;100.00
83308;BME280;73223;48.584;13.460;2024-02-21T01:55:09;97695.31;;;6.09;100.00
83308;BME280;73223;48.584;13.460;2024-02-21T01:57:35;97691.88;;;6.01;100.00
83308;BME280;73223;48.584;13.460;2024-02-21T02:00:01;97701.31;;;6.15;100.00
83308;BME280;73223;48.584;13.460;2024-02-21T02:02:26;97693.59;;;6.03;100.00
83308;BME280;73223;48.584;13.460;2024-02-21T02:04:52;97688.44;;;5.99;100.00
83308;BME280;73223;48.584;13.460;2024-02-21T02:07:17;97688.44;;;6.17;100.00
83308;BME280;73223;48.584;13.460;2024-02-21T02:09:43;97691.84;;;5.93;100.00
83308;BME280;73223;48.584;13.460;2024-02-21T02:12:08;97686.72;;;6.16;100.00
83308;BME280;73223;48.584;13.460;2024-02-21T02:14:34;97681.56;;;5.96;100.00
83308;BME280;73223;48.584;13.460;2024-02-21T02:16:59;97677.28;;;6.13;100.00
83308;BME280;73223;48.584;13.460;2024-02-21T02:19:24;97676.44;;;6.04;100.00
83308;BME280;73223;48.584;13.460;2024-02-21T02:21:51;97674.72;;;6.13;100.00
83308;BME280;73223;48.584;13.460;2024-02-21T02:24:21;97679.88;;;6.21;100.00
83308;BME280;73223;48.584;13.460;2024-02-21T02:26:47;97678.16;;;6.26;100.00
83308;BME280;73223;48.584;13.460;2024-02-21T02:29:12;97676.41;;;6.10;100.00
83308;BME280;73223;48.584;13.460;2024-02-21T02:31:37;97669.59;;;6.09;100.00
83308;BME280;73223;48.584;13.460;2024-02-21T02:34:03;97664.44;;;6.00;100.00
83308;BME280;73223;48.584;13.460;2024-02-21T02:36:31;97661.81;;;5.84;100.00
83308;BME280;73223;48.584;13.460;2024-02-21T02:38:56;97667.84;;;5.94;100.00
83308;BME280;73223;48.584;13.460;2024-02-21T02:41:22;97655.84;;;5.95;100.00
83308;BME280;73223;48.584;13.460;2024-02-21T02:43:47;97661.84;;;5.98;100.00
83308;BME280;73223;48.584;13.460;2024-02-21T02:46:12;97655.00;;;6.03;100.00
83308;BME280;73223;48.584;13.460;2024-02-21T02:48:37;97650.66;;;5.85;100.00
83308;BME280;73223;48.584;13.460;2024-02-21T02:51:03;97643.84;;;6.09;100.00
83308;BME280;73223;48.584;13.460;2024-02-21T02:53:29;97648.16;;;5.90;100.00
83308;BME280;73223;48.584;13.460;2024-02-21T02:55:54;97642.94;;;5.72;100.00
83308;BME280;73223;48.584;13.460;2024-02-21T02:58:19;97637.78;;;5.73;100.00
83308;BME280;73223;48.584;13.460;2024-02-21T03:00:45;97640.41;;;5.91;100.00
83308;BME280;73223;48.584;13.460;2024-02-21T03:03:10;97639.50;;;5.74;100.00
83308;BME280;73223;48.584;13.460;2024-02-21T03:05:35;97633.50;;;5.74;100.00
83308;BME280;73223;48.584;13.460;2024-02-21T03:08:01;97626.63;;;5.76;100.00
83308;BME280;73223;48.584;13.460;2024-02-21T03:10:26;97630.13;;;5.99;100.00
83308;BME280;73223;48.584;13.460;2024-02-21T03:12:51;97622.41;;;5.90;100.00
83308;BME280;73223;48.584;13.460;2024-02-21T03:15:18;97624.97;;;6.05;100.00
83308;BME280;73223;48.584;13.460;2024-02-21T03:17:43;97631.00;;;5.90;100.00
83308;BME280;73223;48.584;13.460;2024-02-21T03:20:09;97624.09;;;5.85;100.00
83308;BME280;73223;48.584;13.460;2024-02-21T03:22:35;97616.38;;;6.09;100.00
83308;BME280;73223;48.584;13.460;2024-02-21T03:25:00;97622.41;;;6.04;100.00
83308;BME280;73223;48.584;13.460;2024-02-21T03:27:26;97609.53;;;6.04;100.00
83308;BME280;73223;48.584;13.460;2024-02-21T03:29:51;97614.66;;;6.13;100.00
83308;BME280;73223;48.584;13.460;2024-02-21T03:32:17;97617.25;;;6.05;100.00
83308;BME280;73223;48.584;13.460;2024-02-21T03:34:42;97621.53;;;6.06;100.00
83308;BME280;73223;48.584;13.460;2024-02-21T03:37:07;97624.06;;;5.48;100.00
83308;BME280;73223;48.584;13.460;2024-02-21T03:39:32;97626.66;;;5.53;100.00
83308;BME280;73223;48.584;13.460;2024-02-21T03:41:58;97622.38;;;5.84;100.00
83308;BME280;73223;48.584;13.460;2024-02-21T03:44:26;97616.34;;;5.62;100.00
83308;BME280;73223;48.584;13.460;2024-02-21T03:46:52;97613.78;;;5.85;100.00
83308;BME280;73223;48.584;13.460;2024-02-21T03:49:17;97624.09;;;5.92;100.00
83308;BME280;73223;48.584;13.460;2024-02-21T03:51:43;97608.66;;;6.00;100.00
83308;BME280;73223;48.584;13.460;2024-02-21T03:54:08;97621.47;;;5.42;100.00
83308;BME280;73223;48.584;13.460;2024-02-21T03:56:37;97620.69;;;5.90;100.00
83308;BME280;73223;48.584;13.460;2024-02-21T03:59:02;97617.22;;;5.81;100.00
83308;BME280;73223;48.584;13.460;2024-02-21T04:01:27;97629.25;;;6.00;100.00
83308;BME280;73223;48.584;13.460;2024-02-21T04:03:53;97629.22;;;5.80;100.00
83308;BME280;73223;48.584;13.460;2024-02-21T04:06:18;97627.47;;;5.37;100.00
83308;BME280;73223;48.584;13.460;2024-02-21T04:08:44;97629.94;;;4.99;100.00
83308;BME280;73223;48.584;13.460;2024-02-21T04:11:10;97630.91;;;5.57;100.00
83308;BME280;73223;48.584;13.460;2024-02-21T04:13:35;97637.78;;;5.64;100.00
83308;BME280;73223;48.584;13.460;2024-02-21T04:16:00;97627.47;;;5.35;100.00
83308;BME280;73223;48.584;13.460;2024-02-21T04:18:26;97623.22;;;5.65;100.00
83308;BME280;73223;48.584;13.460;2024-02-21T04:20:51;97629.25;;;5.92;100.00
83308;BME280;73223;48.584;13.460;2024-02-21T04:23:17;97623.22;;;5.86;100.00
83308;BME280;73223;48.584;13.460;2024-02-21T04:25:42;97630.94;;;5.84;100.00
83308;BME280;73223;48.584;13.460;2024-02-21T04:28:07;97618.06;;;5.66;100.00
83308;BME280;73223;48.584;13.460;2024-02-21T04:30:32;97615.50;;;5.68;100.00
83308;BME280;73223;48.584;13.460;2024-02-21T04:32:58;97612.06;;;5.82;100.00
83308;BME280;73223;48.584;13.460;2024-02-21T04:35:23;97614.63;;;5.76;100.00
83308;BME280;73223;48.584;13.460;2024-02-21T04:37:49;97613.78;;;5.48;100.00
83308;BME280;73223;48.584;13.460;2024-02-21T04:40:14;97612.97;;;5.89;100.00
83308;BME280;73223;48.584;13.460;2024-02-21T04:42:41;97609.50;;;5.66;100.00
83308;BME280;73223;48.584;13.460;2024-02-21T04:45:07;97606.97;;;6.05;100.00
83308;BME280;73223;48.584;13.460;2024-02-21T04:47:32;97603.56;;;5.91;100.00
83308;BME280;73223;48.584;13.460;2024-02-21T04:49:58;97599.22;;;6.11;100.00
83308;BME280;73223;48.584;13.460;2024-02-21T04:52:23;97598.34;;;6.09;100.00
83308;BME280;73223;48.584;13.460;2024-02-21T04:54:48;97594.09;;;6.02;100.00
83308;BME280;73223;48.584;13.460;2024-02-21T04:57:14;97580.38;;;6.05;100.00
83308;BME280;73223;48.584;13.460;2024-02-21T04:59:45;97581.22;;;5.98;100.00
83308;BME280;73223;48.584;13.460;2024-02-21T05:02:11;97579.50;;;6.00;100.00
83308;BME280;73223;48.584;13.460;2024-02-21T05:04:36;97586.38;;;5.98;100.00
83308;BME280;73223;48.584;13.460;2024-02-21T05:07:03;97578.66;;;6.07;100.00
83308;BME280;73223;48.584;13.460;2024-02-21T05:09:29;97580.34;;;5.83;100.00
83308;BME280;73223;48.584;13.460;2024-02-21T05:11:54;97582.91;;;6.24;100.00
83308;BME280;73223;48.584;13.460;2024-02-21T05:14:19;97582.06;;;5.87;100.00
83308;BME280;73223;48.584;13.460;2024-02-21T05:16:45;97577.75;;;6.17;100.00
83308;BME280;73223;48.584;13.460;2024-02-21T05:19:10;97583.78;;;5.93;100.00
83308;BME280;73223;48.584;13.460;2024-02-21T05:21:35;97571.75;;;6.13;100.00
83308;BME280;73223;48.584;13.460;2024-02-21T05:24:00;97569.22;;;6.06;100.00
83308;BME280;73223;48.584;13.460;2024-02-21T05:26:27;97567.41;;;6.34;100.00
83308;BME280;73223;48.584;13.460;2024-02-21T05:28:52;97569.19;;;6.18;100.00
83308;BME280;73223;48.584;13.460;2024-02-21T05:31:19;97564.00;;;6.28;100.00
83308;BME280;73223;48.584;13.460;2024-02-21T05:33:45;97561.41;;;6.39;100.00
83308;BME280;73223;48.584;13.460;2024-02-21T05:36:11;97559.69;;;6.35;100.00
83308;BME280;73223;48.584;13.460;2024-02-21T05:38:36;97561.50;;;5.95;100.00
83308;BME280;73223;48.584;13.460;2024-02-21T05:41:02;97562.28;;;6.29;100.00
83308;BME280;73223;48.584;13.460;2024-02-21T05:43:27;97553.69;;;6.39;100.00
83308;BME280;73223;48.584;13.460;2024-02-21T05:45:52;97552.03;;;6.23;100.00
83308;BME280;73223;48.584;13.460;2024-02-21T05:48:18;97550.31;;;6.23;100.00
83308;BME280;73223;48.584;13.460;2024-02-21T05:50:43;97548.53;;;6.41;100.00
83308;BME280;73223;48.584;13.460;2024-02-21T05:53:08;97543.38;;;6.36;100.00
83308;BME280;73223;48.584;13.460;2024-02-21T05:55:35;97550.34;;;5.95;100.00
83308;BME280;73223;48.584;13.460;2024-02-21T05:58:00;97545.19;;;5.98;100.00
83308;BME280;73223;48.584;13.460;2024-02-21T06:00:25;97547.69;;;6.30;100.00
83308;BME280;73223;48.584;13.460;2024-02-21T06:02:51;97544.25;;;6.38;100.00
83308;BME280;73223;48.584;13.460;2024-02-21T06:05:16;97550.25;;;6.45;100.00
83308;BME280;73223;48.584;13.460;2024-02-21T06:07:41;97556.34;;;6.06;100.00
83308;BME280;73223;48.584;13.460;2024-02-21T06:10:07;97546.81;;;6.40;100.00
83308;BME280;73223;48.584;13.460;2024-02-21T06:12:33;97551.91;;;6.50;100.00
83308;BME280;73223;48.584;13.460;2024-02-21T06:14:58;97545.03;;;6.52;100.00
83308;BME280;73223;48.584;13.460;2024-02-21T06:17:23;97544.19;;;6.49;100.00
83308;BME280;73223;48.584;13.460;2024-02-21T06:19:49;97540.75;;;6.53;100.00
83308;BME280;73223;48.584;13.460;2024-02-21T06:22:14;97533.94;;;6.44;100.00
83308;BME280;73223;48.584;13.460;2024-02-21T06:24:39;97537.38;;;6.37;100.00
83308;BME280;73223;48.584;13.460;2024-02-21T06:27:05;97534.81;;;6.34;100.00
83308;BME280;73223;48.584;13.460;2024-02-21T06:29:33;97540.81;;;6.33;100.00
83308;BME280;73223;48.584;13.460;2024-02-21T06:31:59;97543.41;;;6.27;100.00
83308;BME280;73223;48.584;13.460;2024-02-21T06:34:24;97530.50;;;6.36;100.00
83308;BME280;73223;48.584;13.460;2024-02-21T06:36:50;97537.25;;;6.66;100.00
83308;BME280;73223;48.584;13.460;2024-02-21T06:39:16;97543.25;;;6.68;100.00
83308;BME280;73223;48.584;13.460;2024-02-21T06:41:41;97534.75;;;6.52;100.00
83308;BME280;73223;48.584;13.460;2024-02-21T06:44:06;97532.25;;;6.28;100.00
83308;BME280;73223;48.584;13.460;2024-02-21T06:46:32;97529.53;;;6.63;100.00
83308;BME280;73223;48.584;13.460;2024-02-21T06:48:59;97535.59;;;6.57;100.00
83308;BME280;73223;48.584;13.460;2024-02-21T06:51:25;97529.66;;;6.34;100.00
83308;BME280;73223;48.584;13.460;2024-02-21T06:53:51;97527.00;;;6.54;100.00
83308;BME280;73223;48.584;13.460;2024-02-21T06:56:16;97528.81;;;6.32;100.00
83308;BME280;73223;48.584;13.460;2024-02-21T06:58:41;97534.81;;;6.30;100.00
83308;BME280;73223;48.584;13.460;2024-02-21T07:01:07;97532.09;;;6.68;100.00
83308;BME280;73223;48.584;13.460;2024-02-21T07:03:32;97531.16;;;6.82;100.00
83308;BME280;73223;48.584;13.460;2024-02-21T07:05:58;97529.50;;;6.77;100.00
83308;BME280;73223;48.584;13.460;2024-02-21T07:08:23;97531.22;;;6.70;100.00
83308;BME280;73223;48.584;13.460;2024-02-21T07:10:48;97541.59;;;6.53;100.00
83308;BME280;73223;48.584;13.460;2024-02-21T07:13:14;97533.88;;;6.50;100.00
83308;BME280;73223;48.584;13.460;2024-02-21T07:15:41;97528.84;;;6.18;100.00
83308;BME280;73223;48.584;13.460;2024-02-21T07:18:06;97527.75;;;6.79;100.00
83308;BME280;73223;48.584;13.460;2024-02-21T07:20:32;97523.50;;;6.66;100.00
83308;BME280;73223;48.584;13.460;2024-02-21T07:22:59;97536.94;;;7.22;100.00
83308;BME280;73223;48.584;13.460;2024-02-21T07:25:24;97530.09;;;7.18;100.00
83308;BME280;73223;48.584;13.460;2024-02-21T07:27:49;97539.53;;;7.21;100.00
83308;BME280;73223;48.584;13.460;2024-02-21T07:30:15;97536.22;;;7.01;100.00
83308;BME280;73223;48.584;13.460;2024-02-21T07:32:40;97532.47;;;7.49;100.00
83308;BME280;73223;48.584;13.460;2024-02-21T07:35:06;97529.66;;;7.75;100.00
83308;BME280;73223;48.584;13.460;2024-02-21T07:37:35;97523.28;;;7.11;100.00
83308;BME280;73223;48.584;13.460;2024-02-21T07:40:00;97525.00;;;7.12;100.00
83308;BME280;73223;48.584;13.460;2024-02-21T07:42:26;97527.47;;;7.24;100.00
83308;BME280;73223;48.584;13.460;2024-02-21T07:44:51;97525.75;;;7.23;100.00
83308;BME280;73223;48.584;13.460;2024-02-21T07:47:16;97524.03;;;7.25;100.00
83308;BME280;73223;48.584;13.460;2024-02-21T07:49:44;97518.56;;;7.65;100.00
83308;BME280;73223;48.584;13.460;2024-02-21T07:52:11;97520.84;;;7.97;100.00
83308;BME280;73223;48.584;13.460;2024-02-21T07:54:36;97515.53;;;8.11;100.00
83308;BME280;73223;48.584;13.460;2024-02-21T07:57:01;97514.66;;;8.13;100.00
83308;BME280;73223;48.584;13.460;2024-02-21T07:59:28;97510.34;;;8.14;100.00
83308;BME280;73223;48.584;13.460;2024-02-21T08:01:56;97508.53;;;8.23;100.00
83308;BME280;73223;48.584;13.460;2024-02-21T08:04:22;97510.19;;;8.26;100.00
83308;BME280;73223;48.584;13.460;2024-02-21T08:06:54;97506.78;;;8.24;100.00
83308;BME280;73223;48.584;13.460;2024-02-21T08:09:21;97502.53;;;8.18;100.00
83308;BME280;73223;48.584;13.460;2024-02-21T08:11:47;97496.66;;;8.06;100.00
83308;BME280;73223;48.584;13.460;2024-02-21T08:14:12;97494.69;;;8.27;100.00
83308;BME280;73223;48.584;13.460;2024-02-21T08:16:37;97491.81;;;8.53;100.00
83308;BME280;73223;48.584;13.460;2024-02-21T08:19:02;97490.97;;;8.54;100.00
83308;BME280;73223;48.584;13.460;2024-02-21T08:21:29;97490.63;;;8.79;100.00
83308;BME280;73223;48.584;13.460;2024-02-21T08:23:54;97493.00;;;8.95;100.00
83308;BME280;73223;48.584;13.460;2024-02-21T08:26:20;97484.25;;;9.02;100.00
83308;BME280;73223;48.584;13.460;2024-02-21T08:28:45;97502.69;;;9.38;100.00
83308;BME280;73223;48.584;13.460;2024-02-21T08:31:10;97504.47;;;9.33;100.00
83308;BME280;73223;48.584;13.460;2024-02-21T08:33:35;97506.00;;;9.46;100.00
83308;BME280;73223;48.584;13.460;2024-02-21T08:36:01;97497.97;;;9.63;100.00
83308;BME280;73223;48.584;13.460;2024-02-21T08:38:26;97491.09;;;9.62;100.00
83308;BME280;73223;48.584;13.460;2024-02-21T08:40:51;97481.44;;;9.70;100.00
83308;BME280;73223;48.584;13.460;2024-02-21T08:43:17;97469.28;;;9.75;100.00
83308;BME280;73223;48.584;13.460;2024-02-21T08:45:42;97467.25;;;8.86;100.00
83308;BME280;73223;48.584;13.460;2024-02-21T08:48:07;97465.78;;;9.27;100.00
83308;BME280;73223;48.584;13.460;2024-02-21T08:50:33;97464.25;;;8.55;100.00
83308;BME280;73223;48.584;13.460;2024-02-21T08:52:58;97462.09;;;8.85;100.00
83308;BME280;73223;48.584;13.460;2024-02-21T08:55:23;97455.09;;;8.94;100.00
83308;BME280;73223;48.584;13.460;2024-02-21T08:57:49;97462.50;;;9.16;100.00
83308;BME280;73223;48.584;13.460;2024-02-21T09:00:15;97451.97;;;8.71;100.00
83308;BME280;73223;48.584;13.460;2024-02-21T09:02:41;97443.16;;;8.84;100.00
83308;BME280;73223;48.584;13.460;2024-02-21T09:05:08;97444.66;;;8.99;100.00
83308;BME280;73223;48.584;13.460;2024-02-21T09:07:33;97438.50;;;9.08;100.00
83308;BME280;73223;48.584;13.460;2024-02-21T09:09:59;97436.47;;;8.71;99.71
83308;BME280;73223;48.584;13.460;2024-02-21T09:12:24;97439.31;;;9.63;98.03
83308;BME280;73223;48.584;13.460;2024-02-21T09:14:50;97433.91;;;9.25;98.33
83308;BME280;73223;48.584;13.460;2024-02-21T09:17:16;97441.91;;;9.11;100.00
83308;BME280;73223;48.584;13.460;2024-02-21T09:19:42;97442.41;;;9.82;98.15
83308;BME280;73223;48.584;13.460;2024-02-21T09:22:07;97448.84;;;10.51;88.70
83308;BME280;73223;48.584;13.460;2024-02-21T09:24:33;97444.81;;;10.76;84.29
83308;BME280;73223;48.584;13.460;2024-02-21T09:26:58;97441.66;;;11.02;76.41
83308;BME280;73223;48.584;13.460;2024-02-21T09:29:23;97444.34;;;10.16;82.67
83308;BME280;73223;48.584;13.460;2024-02-21T09:31:48;97445.66;;;10.78;90.65
83308;BME280;73223;48.584;13.460;2024-02-21T09:34:14;97440.91;;;10.97;93.51
83308;BME280;73223;48.584;13.460;2024-02-21T09:36:39;97440.19;;;10.52;95.27
83308;BME280;73223;48.584;13.460;2024-02-21T09:39:05;97435.69;;;10.20;100.00
83308;BME280;73223;48.584;13.460;2024-02-21T09:41:31;97442.88;;;10.47;89.48
83308;BME280;73223;48.584;13.460;2024-02-21T09:43:59;97430.00;;;10.83;88.59
83308;BME280;73223;48.584;13.460;2024-02-21T09:46:40;97432.41;;;10.92;79.31
83308;BME280;73223;48.584;13.460;2024-02-21T09:51:36;97453.16;;;10.52;91.00
83308;BME280;73223;48.584;13.460;2024-02-21T09:54:04;97452.91;;;10.62;89.30
83308;BME280;73223;48.584;13.460;2024-02-21T09:56:29;97438.72;;;10.78;89.82
83308;BME280;73223;48.584;13.460;2024-02-21T09:58:55;97427.78;;;11.38;81.47
83308;BME280;73223;48.584;13.460;2024-02-21T10:01:21;97413.75;;;12.12;77.40
83308;BME280;73223;48.584;13.460;2024-02-21T10:03:46;97417.28;;;12.09;74.13
83308;BME280;73223;48.584;13.460;2024-02-21T10:06:11;97411.94;;;12.45;73.19
83308;BME280;73223;48.584;13.460;2024-02-21T10:08:36;97399.84;;;12.44;70.89
83308;BME280;73223;48.584;13.460;2024-02-21T10:11:02;97399.97;;;11.79;71.96
83308;BME280;73223;48.584;13.460;2024-02-21T10:13:29;97395.81;;;13.19;68.36
83308;BME280;73223;48.584;13.460;2024-02-21T10:16:02;97389.56;;;13.25;62.83
83308;BME280;73223;48.584;13.460;2024-02-21T10:18:27;97399.63;;;12.79;64.69
83308;BME280;73223;48.584;13.460;2024-02-21T10:21:06;97395.41;;;11.19;67.70
83308;BME280;73223;48.584;13.460;2024-02-21T10:23:51;97386.03;;;12.12;71.35
83308;BME280;73223;48.584;13.460;2024-02-21T10:26:18;97385.84;;;12.76;66.71
83308;BME280;73223;48.584;13.460;2024-02-21T10:28:43;97378.34;;;13.23;66.83
83308;BME280;73223;48.584;13.460;2024-02-21T10:31:21;97368.84;;;13.46;65.32
83308;BME280;73223;48.584;13.460;2024-02-21T10:33:54;97358.28;;;13.99;64.49
83308;BME280;73223;48.584;13.460;2024-02-21T10:36:19;97356.00;;;14.37;60.17
83308;BME280;73223;48.584;13.460;2024-02-21T10:38:45;97356.13;;;14.34;59.19
83308;BME280;73223;48.584;13.460;2024-02-21T10:41:14;97357.53;;;14.87;58.77
83308;BME280;73223;48.584;13.460;2024-02-21T10:43:40;97368.31;;;13.37;58.10
83308;BME280;73223;48.584;13.460;2024-02-21T10:46:09;97356.50;;;14.70;58.91
83308;BME280;73223;48.584;13.460;2024-02-21T10:48:45;97353.22;;;14.43;55.88
83308;BME280;73223;48.584;13.460;2024-02-21T10:51:17;97351.53;;;14.64;55.14
83308;BME280;73223;48.584;13.460;2024-02-21T10:56:32;97340.59;;;14.54;59.13
83308;BME280;73223;48.584;13.460;2024-02-21T10:59:03;97333.59;;;14.33;58.15
83308;BME280;73223;48.584;13.460;2024-02-21T11:01:29;97328.19;;;14.61;57.51
83308;BME280;73223;48.584;13.460;2024-02-21T11:03:58;97328.75;;;14.69;56.17
83308;BME280;73223;48.584;13.460;2024-02-21T11:06:25;97327.22;;;14.16;58.24
83308;BME280;73223;48.584;13.460;2024-02-21T11:09:03;97309.38;;;14.74;56.98
83308;BME280;73223;48.584;13.460;2024-02-21T11:11:33;97296.31;;;14.96;56.39
83308;BME280;73223;48.584;13.460;2024-02-21T11:14:06;97303.28;;;14.96;55.55
83308;BME280;73223;48.584;13.460;2024-02-21T11:16:35;97294.00;;;14.88;55.54
83308;BME280;73223;48.584;13.460;2024-02-21T11:19:08;97293.81;;;14.93;52.87
83308;BME280;73223;48.584;13.460;2024-02-21T11:21:35;97294.81;;;15.11;52.76
83308;BME280;73223;48.584;13.460;2024-02-21T11:24:04;97290.31;;;14.72;52.81
83308;BME280;73223;48.584;13.460;2024-02-21T11:26:30;97272.16;;;15.11;51.93
83308;BME280;73223;48.584;13.460;2024-02-21T11:29:04;97269.50;;;15.53;51.00
83308;BME280;73223;48.584;13.460;2024-02-21T11:31:40;97269.44;;;15.94;50.59
83308;BME280;73223;48.584;13.460;2024-02-21T11:34:12;97274.81;;;16.83;49.97
83308;BME280;73223;48.584;13.460;2024-02-21T11:36:50;97261.88;;;17.49;49.54
83308;BME280;73223;48.584;13.460;2024-02-21T11:39:24;97252.72;;;17.74;48.43
83308;BME280;73223;48.584;13.460;2024-02-21T11:42:06;97246.63;;;17.06;48.29
83308;BME280;73223;48.584;13.460;2024-02-21T11:44:36;97235.34;;;17.73;47.70
83308;BME280;73223;48.584;13.460;2024-02-21T11:47:04;97231.16;;;18.33;45.27
83308;BME280;73223;48.584;13.460;2024-02-21T11:49:30;97229.94;;;16.91;45.78
83308;BME280;73223;48.584;13.460;2024-02-21T11:51:59;97235.47;;;15.75;47.59
83308;BME280;73223;48.584;13.460;2024-02-21T11:54:26;97222.25;;;17.55;45.51
83308;BME280;73223;48.584;13.460;2024-02-21T11:56:51;97221.69;;;16.98;45.02
83308;BME280;73223;48.584;13.460;2024-02-21T11:59:16;97218.06;;;17.18;45.37
83308;BME280;73223;48.584;13.460;2024-02-21T12:01:42;97212.44;;;17.09;44.40
83308;BME280;73223;48.584;13.460;2024-02-21T12:04:07;97198.22;;;17.47;44.12
83308;BME280;73223;48.584;13.460;2024-02-21T12:06:33;97192.50;;;16.36;43.92
83308;BME280;73223;48.584;13.460;2024-02-21T12:08:58;97191.28;;;16.96;44.00
83308;BME280;73223;48.584;13.460;2024-02-21T12:11:24;97178.56;;;18.50;43.83
83308;BME280;73223;48.584;13.460;2024-02-21T12:14:03;97174.50;;;20.18;41.34
83308;BME280;73223;48.584;13.460;2024-02-21T12:16:31;97171.22;;;18.41;41.17
83308;BME280;73223;48.584;13.460;2024-02-21T12:18:58;97170.50;;;18.08;42.07
83308;BME280;73223;48.584;13.460;2024-02-21T12:21:34;97156.84;;;19.65;40.36
83308;BME280;73223;48.584;13.460;2024-02-21T12:24:22;97151.38;;;20.50;40.88
83308;BME280;73223;48.584;13.460;2024-02-21T12:26:55;97148.59;;;19.57;41.01
83308;BME280;73223;48.584;13.460;2024-02-21T12:29:21;97142.56;;;19.12;39.39
83308;BME280;73223;48.584;13.460;2024-02-21T12:31:47;97146.88;;;17.92;40.84
83308;BME280;73223;48.584;13.460;2024-02-21T12:34:14;97146.28;;;17.05;43.02
83308;BME280;73223;48.584;13.460;2024-02-21T12:36:44;97132.34;;;17.05;43.36
83308;BME280;73223;48.584;13.460;2024-02-21T12:39:12;97129.13;;;17.97;42.69
83308;BME280;73223;48.584;13.460;2024-02-21T12:41:38;97130.81;;;16.49;43.85
83308;BME280;73223;48.584;13.460;2024-02-21T12:44:05;97117.88;;;18.41;40.82
83308;BME280;73223;48.584;13.460;2024-02-21T12:46:32;97116.16;;;17.94;41.71
83308;BME280;73223;48.584;13.460;2024-02-21T12:48:57;97102.16;;;19.84;40.42
83308;BME280;73223;48.584;13.460;2024-02-21T12:51:23;97098.41;;;20.15;40.16